sensor_id;sensor_type;location;lat;lon;timestamp;P1;durP1;ratioP1;P2;durP2;ratioP2
61903;SDS011;47857;52.270;6.804;2022-07-10T00:00:08;8.00;;;1.35;;
61903;SDS011;47857;52.270;6.804;2022-07-10T00:02:38;9.75;;;1.30;;
61903;SDS011;47857;52.270;6.804;2022-07-10T00:05:05;8.13;;;1.30;;
61903;SDS011;47857;52.270;6.804;2022-07-10T00:07:31;9.65;;;1.15;;
61903;SDS011;47857;52.270;6.804;2022-07-10T00:09:56;8.88;;;1.20;;
61903;SDS011;47857;52.270;6.804;2022-07-10T00:12:22;8.45;;;1.45;;
61903;SDS011;47857;52.270;6.804;2022-07-10T00:14:47;10.32;;;1.02;;
61903;SDS011;47857;52.270;6.804;2022-07-10T00:17:13;7.55;;;1.33;;
61903;SDS011;47857;52.270;6.804;2022-07-10T00:19:38;7.43;;;1.35;;
61903;SDS011;47857;52.270;6.804;2022-07-10T00:22:04;8.40;;;1.25;;
61903;SDS011;47857;52.270;6.804;2022-07-10T00:24:29;9.63;;;1.35;;
61903;SDS011;47857;52.270;6.804;2022-07-10T00:26:55;12.45;;;1.77;;
61903;SDS011;47857;52.270;6.804;2022-07-10T00:29:20;5.20;;;1.10;;
61903;SDS011;47857;52.270;6.804;2022-07-10T00:31:46;8.25;;;1.13;;
61903;SDS011;47857;52.270;6.804;2022-07-10T00:34:11;7.85;;;1.33;;
61903;SDS011;47857;52.270;6.804;2022-07-10T00:36:38;9.45;;;1.30;;
61903;SDS011;47857;52.270;6.804;2022-07-10T00:39:03;8.95;;;1.23;;
61903;SDS011;47857;52.270;6.804;2022-07-10T00:41:29;9.38;;;1.33;;
61903;SDS011;47857;52.270;6.804;2022-07-10T00:43:55;7.72;;;1.52;;
61903;SDS011;47857;52.270;6.804;2022-07-10T00:46:22;10.38;;;1.33;;
61903;SDS011;47857;52.270;6.804;2022-07-10T00:48:48;5.45;;;1.10;;
61903;SDS011;47857;52.270;6.804;2022-07-10T00:51:15;8.88;;;1.27;;
61903;SDS011;47857;52.270;6.804;2022-07-10T00:53:42;10.18;;;1.50;;
61903;SDS011;47857;52.270;6.804;2022-07-10T00:56:09;11.05;;;1.33;;
61903;SDS011;47857;52.270;6.804;2022-07-10T00:58:36;9.23;;;1.33;;
61903;SDS011;47857;52.270;6.804;2022-07-10T01:01:02;8.13;;;1.35;;
61903;SDS011;47857;52.270;6.804;2022-07-10T01:03:28;8.25;;;1.40;;
61903;SDS011;47857;52.270;6.804;2022-07-10T01:05:53;8.13;;;1.38;;
61903;SDS011;47857;52.270;6.804;2022-07-10T01:08:19;5.80;;;1.15;;
61903;SDS011;47857;52.270;6.804;2022-07-10T01:10:44;9.75;;;1.40;;
61903;SDS011;47857;52.270;6.804;2022-07-10T01:13:10;8.82;;;1.20;;
61903;SDS011;47857;52.270;6.804;2022-07-10T01:15:36;8.50;;;1.50;;
61903;SDS011;47857;52.270;6.804;2022-07-10T01:18:02;10.70;;;1.92;;
61903;SDS011;47857;52.270;6.804;2022-07-10T01:20:31;8.23;;;1.40;;
61903;SDS011;47857;52.270;6.804;2022-07-10T01:22:57;8.45;;;1.15;;
61903;SDS011;47857;52.270;6.804;2022-07-10T01:25:23;8.75;;;1.40;;
61903;SDS011;47857;52.270;6.804;2022-07-10T01:27:50;7.35;;;1.25;;
61903;SDS011;47857;52.270;6.804;2022-07-10T01:30:16;10.20;;;1.60;;
61903;SDS011;47857;52.270;6.804;2022-07-10T01:32:42;6.82;;;1.27;;
61903;SDS011;47857;52.270;6.804;2022-07-10T01:35:08;10.65;;;1.50;;
61903;SDS011;47857;52.270;6.804;2022-07-10T01:37:34;11.05;;;1.42;;
61903;SDS011;47857;52.270;6.804;2022-07-10T01:39:59;10.23;;;1.35;;
61903;SDS011;47857;52.270;6.804;2022-07-10T01:42:25;13.75;;;1.40;;
61903;SDS011;47857;52.270;6.804;2022-07-10T01:44:50;10.73;;;1.20;;
61903;SDS011;47857;52.270;6.804;2022-07-10T01:47:16;11.68;;;1.60;;
61903;SDS011;47857;52.270;6.804;2022-07-10T01:49:41;12.82;;;1.63;;
61903;SDS011;47857;52.270;6.804;2022-07-10T01:52:07;9.93;;;1.48;;
61903;SDS011;47857;52.270;6.804;2022-07-10T01:54:34;8.93;;;1.10;;
61903;SDS011;47857;52.270;6.804;2022-07-10T01:57:00;6.22;;;1.30;;
61903;SDS011;47857;52.270;6.804;2022-07-10T01:59:25;9.00;;;1.35;;
61903;SDS011;47857;52.270;6.804;2022-07-10T02:01:51;5.40;;;1.13;;
61903;SDS011;47857;52.270;6.804;2022-07-10T02:04:16;9.15;;;1.50;;
61903;SDS011;47857;52.270;6.804;2022-07-10T02:07:00;5.78;;;1.30;;
61903;SDS011;47857;52.270;6.804;2022-07-10T02:09:26;8.65;;;1.38;;
61903;SDS011;47857;52.270;6.804;2022-07-10T02:11:51;7.82;;;1.35;;
61903;SDS011;47857;52.270;6.804;2022-07-10T02:14:17;6.63;;;1.40;;
61903;SDS011;47857;52.270;6.804;2022-07-10T02:16:42;12.25;;;1.58;;
61903;SDS011;47857;52.270;6.804;2022-07-10T02:19:10;11.27;;;1.70;;
61903;SDS011;47857;52.270;6.804;2022-07-10T02:21:35;10.88;;;2.22;;
61903;SDS011;47857;52.270;6.804;2022-07-10T02:24:01;14.05;;;1.23;;
61903;SDS011;47857;52.270;6.804;2022-07-10T02:26:26;7.40;;;1.30;;
61903;SDS011;47857;52.270;6.804;2022-07-10T02:28:51;8.25;;;1.52;;
61903;SDS011;47857;52.270;6.804;2022-07-10T02:31:17;11.75;;;1.67;;
61903;SDS011;47857;52.270;6.804;2022-07-10T02:33:42;9.93;;;1.35;;
61903;SDS011;47857;52.270;6.804;2022-07-10T02:36:08;6.28;;;1.48;;
61903;SDS011;47857;52.270;6.804;2022-07-10T02:38:34;12.02;;;1.38;;
61903;SDS011;47857;52.270;6.804;2022-07-10T02:41:00;10.68;;;1.50;;
61903;SDS011;47857;52.270;6.804;2022-07-10T02:43:25;8.70;;;1.60;;
61903;SDS011;47857;52.270;6.804;2022-07-10T02:45:51;5.53;;;1.35;;
61903;SDS011;47857;52.270;6.804;2022-07-10T02:48:16;8.20;;;1.70;;
61903;SDS011;47857;52.270;6.804;2022-07-10T02:50:43;8.35;;;1.50;;
61903;SDS011;47857;52.270;6.804;2022-07-10T02:53:08;8.75;;;1.58;;
61903;SDS011;47857;52.270;6.804;2022-07-10T02:55:34;9.50;;;1.50;;
61903;SDS011;47857;52.270;6.804;2022-07-10T02:57:59;9.15;;;1.45;;
61903;SDS011;47857;52.270;6.804;2022-07-10T03:00:25;8.65;;;1.50;;
61903;SDS011;47857;52.270;6.804;2022-07-10T03:02:52;9.32;;;1.80;;
61903;SDS011;47857;52.270;6.804;2022-07-10T03:05:18;10.32;;;1.35;;
61903;SDS011;47857;52.270;6.804;2022-07-10T03:07:44;9.15;;;1.55;;
61903;SDS011;47857;52.270;6.804;2022-07-10T03:10:09;13.48;;;1.70;;
61903;SDS011;47857;52.270;6.804;2022-07-10T03:12:35;10.80;;;1.50;;
61903;SDS011;47857;52.270;6.804;2022-07-10T03:15:02;11.02;;;1.40;;
61903;SDS011;47857;52.270;6.804;2022-07-10T03:17:28;8.55;;;1.55;;
61903;SDS011;47857;52.270;6.804;2022-07-10T03:19:53;9.27;;;1.90;;
61903;SDS011;47857;52.270;6.804;2022-07-10T03:22:19;11.15;;;1.80;;
61903;SDS011;47857;52.270;6.804;2022-07-10T03:24:45;12.27;;;1.60;;
61903;SDS011;47857;52.270;6.804;2022-07-10T03:27:12;6.80;;;1.45;;
61903;SDS011;47857;52.270;6.804;2022-07-10T03:29:38;6.05;;;1.42;;
61903;SDS011;47857;52.270;6.804;2022-07-10T03:32:04;5.78;;;1.52;;
61903;SDS011;47857;52.270;6.804;2022-07-10T03:34:30;10.73;;;1.42;;
61903;SDS011;47857;52.270;6.804;2022-07-10T03:36:55;9.50;;;1.70;;
61903;SDS011;47857;52.270;6.804;2022-07-10T03:39:21;10.05;;;1.60;;
61903;SDS011;47857;52.270;6.804;2022-07-10T03:41:47;7.40;;;1.67;;
61903;SDS011;47857;52.270;6.804;2022-07-10T03:44:12;9.15;;;1.52;;
61903;SDS011;47857;52.270;6.804;2022-07-10T03:46:38;10.43;;;1.70;;
61903;SDS011;47857;52.270;6.804;2022-07-10T03:49:03;8.13;;;1.38;;
61903;SDS011;47857;52.270;6.804;2022-07-10T03:51:29;7.47;;;1.35;;
61903;SDS011;47857;52.270;6.804;2022-07-10T03:53:55;10.63;;;1.90;;
61903;SDS011;47857;52.270;6.804;2022-07-10T03:56:20;8.60;;;1.27;;
61903;SDS011;47857;52.270;6.804;2022-07-10T03:59:04;7.75;;;1.55;;
61903;SDS011;47857;52.270;6.804;2022-07-10T04:01:29;6.32;;;1.58;;
61903;SDS011;47857;52.270;6.804;2022-07-10T04:03:55;6.80;;;1.30;;
61903;SDS011;47857;52.270;6.804;2022-07-10T04:06:21;10.15;;;1.83;;
61903;SDS011;47857;52.270;6.804;2022-07-10T04:08:46;6.78;;;1.40;;
61903;SDS011;47857;52.270;6.804;2022-07-10T04:11:12;7.72;;;1.50;;
61903;SDS011;47857;52.270;6.804;2022-07-10T04:13:37;11.85;;;1.55;;
61903;SDS011;47857;52.270;6.804;2022-07-10T04:16:03;9.30;;;1.40;;
61903;SDS011;47857;52.270;6.804;2022-07-10T04:18:28;28.48;;;12.20;;
61903;SDS011;47857;52.270;6.804;2022-07-10T04:20:54;25.10;;;11.07;;
61903;SDS011;47857;52.270;6.804;2022-07-10T04:23:19;15.82;;;4.70;;
61903;SDS011;47857;52.270;6.804;2022-07-10T04:25:45;16.73;;;4.50;;
61903;SDS011;47857;52.270;6.804;2022-07-10T04:28:10;11.05;;;2.50;;
61903;SDS011;47857;52.270;6.804;2022-07-10T04:30:36;11.75;;;2.50;;
61903;SDS011;47857;52.270;6.804;2022-07-10T04:33:01;9.63;;;2.60;;
61903;SDS011;47857;52.270;6.804;2022-07-10T04:35:26;8.43;;;1.60;;
61903;SDS011;47857;52.270;6.804;2022-07-10T04:37:52;13.75;;;1.52;;
61903;SDS011;47857;52.270;6.804;2022-07-10T04:40:17;12.63;;;1.42;;
61903;SDS011;47857;52.270;6.804;2022-07-10T04:42:43;10.48;;;1.70;;
61903;SDS011;47857;52.270;6.804;2022-07-10T04:45:09;11.18;;;1.42;;
61903;SDS011;47857;52.270;6.804;2022-07-10T04:47:34;9.32;;;1.48;;
61903;SDS011;47857;52.270;6.804;2022-07-10T04:50:00;9.30;;;1.70;;
61903;SDS011;47857;52.270;6.804;2022-07-10T04:52:25;14.55;;;2.33;;
61903;SDS011;47857;52.270;6.804;2022-07-10T04:54:51;14.25;;;2.95;;
61903;SDS011;47857;52.270;6.804;2022-07-10T04:57:16;13.00;;;2.78;;
61903;SDS011;47857;52.270;6.804;2022-07-10T04:59:41;13.27;;;3.25;;
61903;SDS011;47857;52.270;6.804;2022-07-10T05:02:07;11.93;;;2.97;;
61903;SDS011;47857;52.270;6.804;2022-07-10T05:04:33;10.05;;;2.05;;
61903;SDS011;47857;52.270;6.804;2022-07-10T05:06:58;15.27;;;4.53;;
61903;SDS011;47857;52.270;6.804;2022-07-10T05:09:24;10.70;;;2.45;;
61903;SDS011;47857;52.270;6.804;2022-07-10T05:11:50;24.98;;;6.78;;
61903;SDS011;47857;52.270;6.804;2022-07-10T05:14:15;14.48;;;3.45;;
61903;SDS011;47857;52.270;6.804;2022-07-10T05:16:41;8.68;;;1.73;;
61903;SDS011;47857;52.270;6.804;2022-07-10T05:19:07;8.80;;;1.52;;
61903;SDS011;47857;52.270;6.804;2022-07-10T05:21:32;13.13;;;1.50;;
61903;SDS011;47857;52.270;6.804;2022-07-10T05:23:58;11.55;;;1.55;;
61903;SDS011;47857;52.270;6.804;2022-07-10T05:26:24;8.20;;;1.35;;
61903;SDS011;47857;52.270;6.804;2022-07-10T05:28:49;9.23;;;1.45;;
61903;SDS011;47857;52.270;6.804;2022-07-10T05:31:15;12.15;;;1.67;;
61903;SDS011;47857;52.270;6.804;2022-07-10T05:33:40;8.52;;;1.38;;
61903;SDS011;47857;52.270;6.804;2022-07-10T05:36:07;7.85;;;1.67;;
61903;SDS011;47857;52.270;6.804;2022-07-10T05:38:33;11.20;;;1.60;;
61903;SDS011;47857;52.270;6.804;2022-07-10T05:40:59;9.57;;;1.63;;
61903;SDS011;47857;52.270;6.804;2022-07-10T05:43:24;7.25;;;1.40;;
61903;SDS011;47857;52.270;6.804;2022-07-10T05:45:50;9.13;;;1.30;;
61903;SDS011;47857;52.270;6.804;2022-07-10T05:48:16;9.40;;;1.52;;
61903;SDS011;47857;52.270;6.804;2022-07-10T05:50:41;8.15;;;1.23;;
61903;SDS011;47857;52.270;6.804;2022-07-10T05:53:07;6.78;;;1.33;;
61903;SDS011;47857;52.270;6.804;2022-07-10T05:55:32;8.43;;;1.30;;
61903;SDS011;47857;52.270;6.804;2022-07-10T05:57:57;11.25;;;1.45;;
61903;SDS011;47857;52.270;6.804;2022-07-10T06:00:24;10.00;;;1.33;;
61903;SDS011;47857;52.270;6.804;2022-07-10T06:02:50;11.77;;;1.60;;
61903;SDS011;47857;52.270;6.804;2022-07-10T06:05:15;8.65;;;1.58;;
61903;SDS011;47857;52.270;6.804;2022-07-10T06:07:41;13.38;;;1.88;;
61903;SDS011;47857;52.270;6.804;2022-07-10T06:10:06;9.77;;;1.50;;
61903;SDS011;47857;52.270;6.804;2022-07-10T06:12:32;10.88;;;1.50;;
61903;SDS011;47857;52.270;6.804;2022-07-10T06:14:58;12.60;;;1.48;;
61903;SDS011;47857;52.270;6.804;2022-07-10T06:17:23;10.20;;;1.48;;
61903;SDS011;47857;52.270;6.804;2022-07-10T06:19:49;9.63;;;1.63;;
61903;SDS011;47857;52.270;6.804;2022-07-10T06:22:14;12.63;;;1.80;;
61903;SDS011;47857;52.270;6.804;2022-07-10T06:24:55;8.85;;;1.58;;
61903;SDS011;47857;52.270;6.804;2022-07-10T06:27:21;7.30;;;1.50;;
61903;SDS011;47857;52.270;6.804;2022-07-10T06:29:47;7.40;;;1.27;;
61903;SDS011;47857;52.270;6.804;2022-07-10T06:32:12;8.65;;;1.48;;
61903;SDS011;47857;52.270;6.804;2022-07-10T06:34:38;14.48;;;1.40;;
61903;SDS011;47857;52.270;6.804;2022-07-10T06:37:03;13.07;;;2.78;;
61903;SDS011;47857;52.270;6.804;2022-07-10T06:39:31;8.25;;;1.52;;
61903;SDS011;47857;52.270;6.804;2022-07-10T06:42:03;7.63;;;1.48;;
61903;SDS011;47857;52.270;6.804;2022-07-10T06:44:29;16.48;;;3.70;;
61903;SDS011;47857;52.270;6.804;2022-07-10T06:46:55;12.32;;;2.80;;
61903;SDS011;47857;52.270;6.804;2022-07-10T06:49:40;11.07;;;2.05;;
61903;SDS011;47857;52.270;6.804;2022-07-10T06:52:06;13.80;;;2.20;;
61903;SDS011;47857;52.270;6.804;2022-07-10T06:54:32;13.45;;;3.80;;
61903;SDS011;47857;52.270;6.804;2022-07-10T06:56:57;10.02;;;2.40;;
61903;SDS011;47857;52.270;6.804;2022-07-10T06:59:23;11.60;;;1.52;;
61903;SDS011;47857;52.270;6.804;2022-07-10T07:01:48;5.63;;;1.13;;
61903;SDS011;47857;52.270;6.804;2022-07-10T07:04:14;8.88;;;1.63;;
61903;SDS011;47857;52.270;6.804;2022-07-10T07:06:39;6.43;;;1.50;;
61903;SDS011;47857;52.270;6.804;2022-07-10T07:09:05;9.18;;;1.63;;
61903;SDS011;47857;52.270;6.804;2022-07-10T07:11:30;6.57;;;1.30;;
61903;SDS011;47857;52.270;6.804;2022-07-10T07:13:56;9.38;;;1.60;;
61903;SDS011;47857;52.270;6.804;2022-07-10T07:16:21;10.85;;;4.72;;
61903;SDS011;47857;52.270;6.804;2022-07-10T07:19:02;14.98;;;4.78;;
61903;SDS011;47857;52.270;6.804;2022-07-10T07:21:29;9.57;;;3.30;;
61903;SDS011;47857;52.270;6.804;2022-07-10T07:24:16;11.68;;;1.38;;
61903;SDS011;47857;52.270;6.804;2022-07-10T07:26:45;8.40;;;1.50;;
61903;SDS011;47857;52.270;6.804;2022-07-10T07:29:15;9.30;;;1.50;;
61903;SDS011;47857;52.270;6.804;2022-07-10T07:31:41;9.60;;;1.40;;
61903;SDS011;47857;52.270;6.804;2022-07-10T07:34:06;9.13;;;1.75;;
61903;SDS011;47857;52.270;6.804;2022-07-10T07:36:32;9.05;;;1.15;;
61903;SDS011;47857;52.270;6.804;2022-07-10T07:38:58;12.63;;;5.10;;
61903;SDS011;47857;52.270;6.804;2022-07-10T07:41:23;11.82;;;4.25;;
61903;SDS011;47857;52.270;6.804;2022-07-10T07:43:49;11.25;;;2.85;;
61903;SDS011;47857;52.270;6.804;2022-07-10T07:46:15;11.93;;;2.60;;
61903;SDS011;47857;52.270;6.804;2022-07-10T07:48:40;18.33;;;5.75;;
61903;SDS011;47857;52.270;6.804;2022-07-10T07:51:06;5.97;;;1.70;;
61903;SDS011;47857;52.270;6.804;2022-07-10T07:53:31;7.55;;;1.60;;
61903;SDS011;47857;52.270;6.804;2022-07-10T07:55:57;5.43;;;1.33;;
61903;SDS011;47857;52.270;6.804;2022-07-10T07:58:23;8.07;;;1.33;;
61903;SDS011;47857;52.270;6.804;2022-07-10T08:00:49;9.38;;;1.30;;
61903;SDS011;47857;52.270;6.804;2022-07-10T08:03:14;3.95;;;0.82;;
61903;SDS011;47857;52.270;6.804;2022-07-10T08:05:41;6.95;;;1.20;;
61903;SDS011;47857;52.270;6.804;2022-07-10T08:08:06;6.03;;;1.55;;
61903;SDS011;47857;52.270;6.804;2022-07-10T08:10:34;7.57;;;1.63;;
61903;SDS011;47857;52.270;6.804;2022-07-10T08:13:00;3.58;;;1.00;;
61903;SDS011;47857;52.270;6.804;2022-07-10T08:15:26;4.93;;;1.40;;
61903;SDS011;47857;52.270;6.804;2022-07-10T08:17:52;4.22;;;1.05;;
61903;SDS011;47857;52.270;6.804;2022-07-10T08:20:19;4.50;;;1.20;;
61903;SDS011;47857;52.270;6.804;2022-07-10T08:22:44;5.32;;;1.30;;
61903;SDS011;47857;52.270;6.804;2022-07-10T08:25:10;5.75;;;1.35;;
61903;SDS011;47857;52.270;6.804;2022-07-10T08:27:36;5.57;;;1.40;;
61903;SDS011;47857;52.270;6.804;2022-07-10T08:30:02;6.97;;;1.77;;
61903;SDS011;47857;52.270;6.804;2022-07-10T08:32:28;6.53;;;1.67;;
61903;SDS011;47857;52.270;6.804;2022-07-10T08:34:54;6.43;;;1.92;;
61903;SDS011;47857;52.270;6.804;2022-07-10T08:37:20;4.75;;;1.40;;
61903;SDS011;47857;52.270;6.804;2022-07-10T08:39:46;6.20;;;1.50;;
61903;SDS011;47857;52.270;6.804;2022-07-10T08:42:11;5.15;;;1.30;;
61903;SDS011;47857;52.270;6.804;2022-07-10T08:44:37;4.63;;;1.38;;
61903;SDS011;47857;52.270;6.804;2022-07-10T08:47:03;4.38;;;1.02;;
61903;SDS011;47857;52.270;6.804;2022-07-10T08:49:30;3.60;;;1.10;;
61903;SDS011;47857;52.270;6.804;2022-07-10T08:51:57;5.75;;;1.05;;
61903;SDS011;47857;52.270;6.804;2022-07-10T08:54:28;4.45;;;1.25;;
61903;SDS011;47857;52.270;6.804;2022-07-10T08:56:58;2.35;;;0.60;;
61903;SDS011;47857;52.270;6.804;2022-07-10T08:59:24;4.60;;;0.88;;
61903;SDS011;47857;52.270;6.804;2022-07-10T09:01:50;3.63;;;0.80;;
61903;SDS011;47857;52.270;6.804;2022-07-10T09:04:20;1.70;;;0.60;;
61903;SDS011;47857;52.270;6.804;2022-07-10T09:06:46;4.38;;;0.70;;
61903;SDS011;47857;52.270;6.804;2022-07-10T09:09:12;2.78;;;0.80;;
61903;SDS011;47857;52.270;6.804;2022-07-10T09:11:38;3.47;;;0.80;;
61903;SDS011;47857;52.270;6.804;2022-07-10T09:14:06;4.47;;;1.00;;
61903;SDS011;47857;52.270;6.804;2022-07-10T09:16:37;4.93;;;0.82;;
61903;SDS011;47857;52.270;6.804;2022-07-10T09:22:09;7.35;;;0.90;;
61903;SDS011;47857;52.270;6.804;2022-07-10T09:24:36;7.68;;;1.10;;
61903;SDS011;47857;52.270;6.804;2022-07-10T09:27:03;5.90;;;2.42;;
61903;SDS011;47857;52.270;6.804;2022-07-10T09:29:29;6.00;;;2.10;;
61903;SDS011;47857;52.270;6.804;2022-07-10T09:31:55;3.10;;;1.02;;
61903;SDS011;47857;52.270;6.804;2022-07-10T09:42:28;2.08;;;0.82;;
61903;SDS011;47857;52.270;6.804;2022-07-10T09:47:38;4.45;;;0.77;;
61903;SDS011;47857;52.270;6.804;2022-07-10T09:50:29;2.42;;;1.00;;
61903;SDS011;47857;52.270;6.804;2022-07-10T09:52:59;4.85;;;0.63;;
61903;SDS011;47857;52.270;6.804;2022-07-10T09:55:25;2.08;;;0.50;;
61903;SDS011;47857;52.270;6.804;2022-07-10T10:00:31;1.98;;;0.60;;
61903;SDS011;47857;52.270;6.804;2022-07-10T10:05:32;2.55;;;0.80;;
61903;SDS011;47857;52.270;6.804;2022-07-10T10:08:01;2.65;;;0.50;;
61903;SDS011;47857;52.270;6.804;2022-07-10T10:10:31;2.83;;;0.80;;
61903;SDS011;47857;52.270;6.804;2022-07-10T10:12:58;3.95;;;0.82;;
61903;SDS011;47857;52.270;6.804;2022-07-10T10:15:25;2.58;;;0.70;;
61903;SDS011;47857;52.270;6.804;2022-07-10T10:17:51;2.05;;;0.70;;
61903;SDS011;47857;52.270;6.804;2022-07-10T10:20:16;2.40;;;0.70;;
61903;SDS011;47857;52.270;6.804;2022-07-10T10:23:02;2.63;;;0.82;;
61903;SDS011;47857;52.270;6.804;2022-07-10T10:25:29;3.00;;;0.80;;
61903;SDS011;47857;52.270;6.804;2022-07-10T10:27:58;2.45;;;0.70;;
61903;SDS011;47857;52.270;6.804;2022-07-10T10:30:25;2.92;;;0.60;;
61903;SDS011;47857;52.270;6.804;2022-07-10T10:32:50;3.90;;;0.70;;
61903;SDS011;47857;52.270;6.804;2022-07-10T10:38:06;1.90;;;0.47;;
61903;SDS011;47857;52.270;6.804;2022-07-10T10:40:34;2.08;;;0.43;;
61903;SDS011;47857;52.270;6.804;2022-07-10T10:43:15;3.05;;;0.70;;
61903;SDS011;47857;52.270;6.804;2022-07-10T10:45:44;2.47;;;0.70;;
61903;SDS011;47857;52.270;6.804;2022-07-10T10:48:10;2.38;;;0.60;;
61903;SDS011;47857;52.270;6.804;2022-07-10T10:50:38;2.50;;;0.68;;
61903;SDS011;47857;52.270;6.804;2022-07-10T10:53:05;4.13;;;0.93;;
61903;SDS011;47857;52.270;6.804;2022-07-10T10:55:42;2.97;;;1.20;;
61903;SDS011;47857;52.270;6.804;2022-07-10T10:58:38;4.03;;;1.13;;
61903;SDS011;47857;52.270;6.804;2022-07-10T11:06:46;4.07;;;1.20;;
61903;SDS011;47857;52.270;6.804;2022-07-10T11:09:23;4.47;;;1.30;;
61903;SDS011;47857;52.270;6.804;2022-07-10T11:14:27;5.70;;;1.50;;
61903;SDS011;47857;52.270;6.804;2022-07-10T11:16:54;5.85;;;2.70;;
61903;SDS011;47857;52.270;6.804;2022-07-10T11:19:29;3.80;;;1.58;;
61903;SDS011;47857;52.270;6.804;2022-07-10T11:22:03;6.75;;;3.13;;
61903;SDS011;47857;52.270;6.804;2022-07-10T11:27:29;8.95;;;4.07;;
61903;SDS011;47857;52.270;6.804;2022-07-10T11:30:02;8.43;;;4.88;;
61903;SDS011;47857;52.270;6.804;2022-07-10T11:32:28;6.30;;;2.28;;
61903;SDS011;47857;52.270;6.804;2022-07-10T11:34:54;7.07;;;2.78;;
61903;SDS011;47857;52.270;6.804;2022-07-10T11:37:20;5.75;;;2.85;;
61903;SDS011;47857;52.270;6.804;2022-07-10T11:39:47;4.72;;;1.90;;
61903;SDS011;47857;52.270;6.804;2022-07-10T11:42:12;9.13;;;2.30;;
61903;SDS011;47857;52.270;6.804;2022-07-10T11:44:38;6.07;;;1.40;;
61903;SDS011;47857;52.270;6.804;2022-07-10T11:47:04;3.40;;;1.23;;
61903;SDS011;47857;52.270;6.804;2022-07-10T11:49:30;5.43;;;1.70;;
61903;SDS011;47857;52.270;6.804;2022-07-10T11:52:00;4.03;;;1.40;;
61903;SDS011;47857;52.270;6.804;2022-07-10T11:54:26;3.85;;;1.35;;
61903;SDS011;47857;52.270;6.804;2022-07-10T11:56:52;5.28;;;1.50;;
61903;SDS011;47857;52.270;6.804;2022-07-10T11:59:22;6.45;;;1.30;;
61903;SDS011;47857;52.270;6.804;2022-07-10T12:01:50;4.47;;;1.50;;
61903;SDS011;47857;52.270;6.804;2022-07-10T12:04:20;4.07;;;1.70;;
61903;SDS011;47857;52.270;6.804;2022-07-10T12:06:50;5.38;;;1.88;;
61903;SDS011;47857;52.270;6.804;2022-07-10T12:09:17;4.53;;;1.83;;
61903;SDS011;47857;52.270;6.804;2022-07-10T12:11:57;5.78;;;1.80;;
61903;SDS011;47857;52.270;6.804;2022-07-10T12:14:31;3.78;;;1.83;;
61903;SDS011;47857;52.270;6.804;2022-07-10T12:16:57;4.57;;;1.90;;
61903;SDS011;47857;52.270;6.804;2022-07-10T12:19:29;4.78;;;1.50;;
61903;SDS011;47857;52.270;6.804;2022-07-10T12:21:58;3.63;;;1.85;;
61903;SDS011;47857;52.270;6.804;2022-07-10T12:24:24;5.93;;;1.80;;
61903;SDS011;47857;52.270;6.804;2022-07-10T12:26:50;4.97;;;1.70;;
61903;SDS011;47857;52.270;6.804;2022-07-10T12:31:43;8.38;;;1.90;;
61903;SDS011;47857;52.270;6.804;2022-07-10T12:34:10;4.75;;;1.85;;
61903;SDS011;47857;52.270;6.804;2022-07-10T12:39:11;5.90;;;2.10;;
61903;SDS011;47857;52.270;6.804;2022-07-10T12:44:29;6.50;;;2.10;;
61903;SDS011;47857;52.270;6.804;2022-07-10T12:52:26;5.63;;;1.63;;
61903;SDS011;47857;52.270;6.804;2022-07-10T12:55:05;5.50;;;1.45;;
61903;SDS011;47857;52.270;6.804;2022-07-10T13:00:24;4.82;;;1.60;;
61903;SDS011;47857;52.270;6.804;2022-07-10T13:02:56;4.90;;;1.73;;
61903;SDS011;47857;52.270;6.804;2022-07-10T13:05:33;5.95;;;1.90;;
61903;SDS011;47857;52.270;6.804;2022-07-10T13:08:10;5.68;;;1.60;;
61903;SDS011;47857;52.270;6.804;2022-07-10T13:10:57;6.75;;;1.50;;
61903;SDS011;47857;52.270;6.804;2022-07-10T13:13:24;3.50;;;1.50;;
61903;SDS011;47857;52.270;6.804;2022-07-10T13:15:49;4.78;;;1.63;;
61903;SDS011;47857;52.270;6.804;2022-07-10T13:18:25;8.10;;;1.60;;
61903;SDS011;47857;52.270;6.804;2022-07-10T13:20:52;4.43;;;1.65;;
61903;SDS011;47857;52.270;6.804;2022-07-10T13:23:19;5.85;;;1.75;;
61903;SDS011;47857;52.270;6.804;2022-07-10T13:25:49;6.25;;;1.65;;
61903;SDS011;47857;52.270;6.804;2022-07-10T13:28:15;5.30;;;1.52;;
61903;SDS011;47857;52.270;6.804;2022-07-10T13:30:41;5.80;;;1.35;;
61903;SDS011;47857;52.270;6.804;2022-07-10T13:33:07;6.60;;;1.85;;
61903;SDS011;47857;52.270;6.804;2022-07-10T13:35:33;5.53;;;1.63;;
61903;SDS011;47857;52.270;6.804;2022-07-10T13:37:59;7.90;;;1.55;;
61903;SDS011;47857;52.270;6.804;2022-07-10T13:40:25;7.05;;;1.50;;
61903;SDS011;47857;52.270;6.804;2022-07-10T13:42:52;4.72;;;1.20;;
61903;SDS011;47857;52.270;6.804;2022-07-10T13:45:18;7.45;;;0.90;;
61903;SDS011;47857;52.270;6.804;2022-07-10T13:47:44;6.63;;;1.13;;
61903;SDS011;47857;52.270;6.804;2022-07-10T13:50:09;5.63;;;1.35;;
61903;SDS011;47857;52.270;6.804;2022-07-10T13:52:35;3.50;;;1.40;;
61903;SDS011;47857;52.270;6.804;2022-07-10T13:55:00;6.57;;;1.90;;
61903;SDS011;47857;52.270;6.804;2022-07-10T13:57:26;3.90;;;1.38;;
61903;SDS011;47857;52.270;6.804;2022-07-10T13:59:52;5.20;;;1.33;;
61903;SDS011;47857;52.270;6.804;2022-07-10T14:02:18;5.85;;;1.70;;
61903;SDS011;47857;52.270;6.804;2022-07-10T14:04:45;13.10;;;6.38;;
61903;SDS011;47857;52.270;6.804;2022-07-10T14:07:10;7.60;;;1.88;;
61903;SDS011;47857;52.270;6.804;2022-07-10T14:09:36;2.38;;;0.98;;
61903;SDS011;47857;52.270;6.804;2022-07-10T14:12:01;5.80;;;1.30;;
61903;SDS011;47857;52.270;6.804;2022-07-10T14:14:27;8.15;;;1.15;;
61903;SDS011;47857;52.270;6.804;2022-07-10T14:16:52;6.13;;;1.33;;
61903;SDS011;47857;52.270;6.804;2022-07-10T14:19:18;5.90;;;1.38;;
61903;SDS011;47857;52.270;6.804;2022-07-10T14:21:43;4.00;;;1.30;;
61903;SDS011;47857;52.270;6.804;2022-07-10T14:24:09;5.78;;;1.30;;
61903;SDS011;47857;52.270;6.804;2022-07-10T14:26:35;4.20;;;1.30;;
61903;SDS011;47857;52.270;6.804;2022-07-10T14:29:02;4.60;;;1.27;;
61903;SDS011;47857;52.270;6.804;2022-07-10T14:31:28;4.10;;;1.20;;
61903;SDS011;47857;52.270;6.804;2022-07-10T14:33:54;7.68;;;1.30;;
61903;SDS011;47857;52.270;6.804;2022-07-10T14:36:20;6.82;;;1.08;;
61903;SDS011;47857;52.270;6.804;2022-07-10T14:38:51;6.00;;;1.20;;
61903;SDS011;47857;52.270;6.804;2022-07-10T14:41:21;5.70;;;1.10;;
61903;SDS011;47857;52.270;6.804;2022-07-10T14:43:47;3.40;;;1.13;;
61903;SDS011;47857;52.270;6.804;2022-07-10T14:46:12;5.65;;;1.10;;
61903;SDS011;47857;52.270;6.804;2022-07-10T14:48:38;3.55;;;1.27;;
61903;SDS011;47857;52.270;6.804;2022-07-10T14:51:03;4.38;;;1.30;;
61903;SDS011;47857;52.270;6.804;2022-07-10T14:53:29;2.53;;;0.80;;
61903;SDS011;47857;52.270;6.804;2022-07-10T14:55:59;4.82;;;1.00;;
61903;SDS011;47857;52.270;6.804;2022-07-10T14:58:25;5.28;;;1.35;;
61903;SDS011;47857;52.270;6.804;2022-07-10T15:00:50;4.10;;;1.00;;
61903;SDS011;47857;52.270;6.804;2022-07-10T15:03:16;3.33;;;1.00;;
61903;SDS011;47857;52.270;6.804;2022-07-10T15:05:42;3.15;;;0.93;;
61903;SDS011;47857;52.270;6.804;2022-07-10T15:08:07;2.67;;;0.82;;
61903;SDS011;47857;52.270;6.804;2022-07-10T15:10:33;5.88;;;1.17;;
61903;SDS011;47857;52.270;6.804;2022-07-10T15:12:59;3.03;;;1.02;;
61903;SDS011;47857;52.270;6.804;2022-07-10T15:15:25;3.47;;;0.93;;
61903;SDS011;47857;52.270;6.804;2022-07-10T15:17:51;3.20;;;1.15;;
61903;SDS011;47857;52.270;6.804;2022-07-10T15:20:16;5.72;;;1.48;;
61903;SDS011;47857;52.270;6.804;2022-07-10T15:22:44;5.40;;;1.20;;
61903;SDS011;47857;52.270;6.804;2022-07-10T15:25:10;2.90;;;0.95;;
61903;SDS011;47857;52.270;6.804;2022-07-10T15:27:35;5.38;;;1.30;;
61903;SDS011;47857;52.270;6.804;2022-07-10T15:30:01;3.40;;;1.20;;
61903;SDS011;47857;52.270;6.804;2022-07-10T15:32:26;3.80;;;1.20;;